Time;durP1;ratioP1;P1;durP2;ratioP2;P2;SDS_P1;SDS_P2;PMS_P1;PMS_P2;Temp;Humidity;BMP_temperature;BMP_pressure;BME280_temperature;BME280_humidity;BME280_pressure;Samples;Min_cycle;Max_cycle;Signal;HPM_P1;HPM_P2
2022/07/18 00:02:02;;;;;;;7.97;4.87;;;;;;;14.79;80.50;102281.34;5095763;28;20036;-77
2022/07/18 00:04:28;;;;;;;6.63;4.40;;;;;;;14.77;80.71;102288.88;5097191;28;20020;-78
2022/07/18 00:06:54;;;;;;;7.97;4.80;;;;;;;14.70;81.47;102291.63;5095740;28;20032;-77
2022/07/18 00:09:22;;;;;;;9.80;5.10;;;;;;;14.67;80.76;102289.28;5087028;28;20040;-78
2022/07/18 00:11:47;;;;;;;8.43;4.87;;;;;;;14.61;81.54;102280.00;5075643;28;20479;-78
2022/07/18 00:14:13;;;;;;;9.30;5.03;;;;;;;14.67;81.37;102284.69;5052839;28;20033;-77
2022/07/18 00:16:38;;;;;;;8.30;4.93;;;;;;;14.63;81.32;102283.41;5054224;28;20028;-78
2022/07/18 00:19:04;;;;;;;8.87;5.67;;;;;;;14.53;82.01;102283.72;5073568;28;20048;-78
2022/07/18 00:21:29;;;;;;;9.47;5.53;;;;;;;14.50;81.75;102275.97;5074183;28;20017;-77
2022/07/18 00:23:55;;;;;;;9.10;5.90;;;;;;;14.54;81.37;102273.69;5073978;28;20032;-78
2022/07/18 00:26:20;;;;;;;10.33;5.40;;;;;;;14.54;80.55;102273.69;5075389;28;20054;-78
2022/07/18 00:28:46;;;;;;;8.63;5.27;;;;;;;14.48;80.24;102269.03;5075452;28;20108;-78
2022/07/18 00:31:11;;;;;;;9.20;5.37;;;;;;;14.40;80.99;102269.19;5074110;28;20028;-78
2022/07/18 00:33:37;;;;;;;8.90;5.40;;;;;;;14.45;80.89;102274.91;5075380;28;20349;-78
2022/07/18 00:36:02;;;;;;;11.43;5.30;;;;;;;14.47;79.92;102268.19;5075495;28;20028;-77
2022/07/18 00:38:28;;;;;;;9.43;5.53;;;;;;;14.35;80.55;102267.91;5076288;28;20033;-78
2022/07/18 00:40:53;;;;;;;8.90;5.50;;;;;;;14.27;80.90;102259.91;5073880;28;20041;-78
2022/07/18 00:43:19;;;;;;;7.90;5.80;;;;;;;14.27;81.48;102262.63;5056079;28;20052;-78
2022/07/18 00:45:46;;;;;;;10.97;5.37;;;;;;;14.30;80.79;102267.69;5074574;28;20521;-78
2022/07/18 00:48:11;;;;;;;9.43;5.43;;;;;;;14.32;80.82;102259.28;5074590;28;20037;-77
2022/07/18 00:50:37;;;;;;;10.10;5.53;;;;;;;13.99;81.18;102233.56;5074801;28;20036;-77
2022/07/18 00:53:02;;;;;;;10.57;5.53;;;;;;;14.27;81.45;102251.72;5057880;28;20040;-78
2022/07/18 00:55:28;;;;;;;12.00;5.20;;;;;;;14.14;80.98;102254.38;5074689;28;20035;-77
2022/07/18 00:57:56;;;;;;;10.87;5.43;;;;;;;14.05;81.60;102251.00;5074584;28;20524;-78
2022/07/18 01:03:05;;;;;;;9.68;5.72;;;;;;;13.99;81.71;102252.66;5075051;28;20101;-78
2022/07/18 01:05:31;;;;;;;9.83;5.83;;;;;;;13.96;81.94;102244.84;5057215;28;20036;-78
2022/07/18 01:07:56;;;;;;;10.17;5.83;;;;;;;14.01;81.79;102239.66;5074232;28;20029;-78
2022/07/18 01:10:22;;;;;;;8.77;5.93;;;;;;;13.95;81.70;102234.16;5091186;28;20044;-78
2022/07/18 01:12:47;;;;;;;10.80;6.17;;;;;;;13.92;81.55;102232.66;5094090;28;20036;-78
2022/07/18 01:15:13;;;;;;;9.53;6.20;;;;;;;13.86;82.08;102230.75;5093025;28;20039;-85
2022/07/18 01:17:39;;;;;;;10.37;5.83;;;;;;;13.87;82.34;102237.03;5090051;28;20480;-77
2022/07/18 01:20:05;;;;;;;10.37;5.83;;;;;;;13.89;82.32;102235.81;5094169;28;20077;-78
2022/07/18 01:22:32;;;;;;;8.57;5.97;;;;;;;13.80;82.54;102237.00;5093818;28;20020;-77
2022/07/18 01:24:57;;;;;;;9.93;6.03;;;;;;;13.87;82.77;102240.63;5095367;28;20077;-78
2022/07/18 01:27:23;;;;;;;8.17;5.87;;;;;;;13.77;82.54;102234.69;5093691;28;20035;-77
2022/07/18 01:29:51;;;;;;;11.23;5.90;;;;;;;13.87;82.93;102235.19;5092775;28;20074;-78
2022/07/18 01:32:18;;;;;;;10.23;5.60;;;;;;;13.82;83.36;102233.03;5094173;28;20028;-78
2022/07/18 01:34:45;;;;;;;12.67;6.10;;;;;;;13.73;83.46;102227.94;5094130;28;20027;-77
2022/07/18 01:37:11;;;;;;;7.47;5.77;;;;;;;13.67;83.62;102235.88;5094393;28;20035;-77
2022/07/18 01:39:37;;;;;;;8.90;5.80;;;;;;;13.72;83.75;102235.28;5089630;28;20020;-77
2022/07/18 01:42:05;;;;;;;8.57;5.67;;;;;;;13.64;83.80;102225.38;5094187;28;20375;-78
2022/07/18 01:44:32;;;;;;;8.03;5.70;;;;;;;13.62;83.71;102224.72;5092993;28;20464;-78
2022/07/18 01:46:58;;;;;;;10.27;5.70;;;;;;;13.70;83.51;102231.06;5075749;28;20049;-78
2022/07/18 01:49:24;;;;;;;7.93;5.70;;;;;;;13.62;83.58;102215.72;5092860;28;20032;-78
2022/07/18 01:51:51;;;;;;;8.73;5.63;;;;;;;13.59;83.94;102229.75;5092680;28;20388;-78
2022/07/18 01:54:26;;;;;;;9.23;5.77;;;;;;;13.59;84.13;102233.28;5093715;28;20106;-77
2022/07/18 01:56:51;;;;;;;11.10;6.00;;;;;;;13.49;84.15;102220.03;5093241;28;20089;-77
2022/07/18 01:59:17;;;;;;;8.80;5.60;;;;;;;13.50;84.34;102227.16;5092109;28;20119;-78
2022/07/18 02:01:43;;;;;;;10.90;5.93;;;;;;;13.54;84.76;102224.88;5092311;28;20028;-78
2022/07/18 02:04:09;;;;;;;9.33;6.00;;;;;;;13.55;83.96;102221.13;5093173;28;20465;-78
2022/07/18 02:06:34;;;;;;;8.50;5.70;;;;;;;13.47;84.13;102229.44;5092097;28;20462;-77
2022/07/18 02:08:59;;;;;;;9.27;6.10;;;;;;;13.39;84.04;102213.25;5086308;28;20093;-78
2022/07/18 02:11:25;;;;;;;10.37;5.83;;;;;;;13.48;84.15;102218.34;5071829;28;20488;-77
2022/07/18 02:13:50;;;;;;;8.20;5.70;;;;;;;13.42;84.46;102212.84;5054816;28;20025;-78
2022/07/18 02:16:15;;;;;;;8.40;5.57;;;;;;;13.38;84.24;102212.41;5072778;28;20040;-78
2022/07/18 02:18:41;;;;;;;11.10;6.17;;;;;;;13.36;84.35;102203.59;5073056;28;20028;-78
2022/07/18 02:21:07;;;;;;;10.30;6.17;;;;;;;13.41;84.12;102200.25;5072180;28;20039;-77
2022/07/18 02:23:33;;;;;;;8.70;6.00;;;;;;;13.31;84.58;102203.28;5073086;28;20453;-78
2022/07/18 02:25:58;;;;;;;8.70;5.90;;;;;;;13.34;84.34;102192.00;5072380;28;20032;-78
2022/07/18 02:28:24;;;;;;;7.47;5.80;;;;;;;13.29;84.26;102199.94;5074132;28;20085;-77
2022/07/18 02:30:49;;;;;;;11.47;6.03;;;;;;;13.30;84.14;102190.72;5050548;28;20074;-78
2022/07/18 02:33:16;;;;;;;13.13;6.67;;;;;;;13.26;84.64;102209.34;5071737;28;20042;-77
2022/07/18 02:35:41;;;;;;;9.57;5.73;;;;;;;13.28;84.75;102214.59;5072883;28;20036;-77
2022/07/18 02:38:07;;;;;;;10.00;6.03;;;;;;;13.21;85.72;102203.63;5073834;28;20023;-77
2022/07/18 02:40:33;;;;;;;9.03;6.20;;;;;;;13.21;85.94;102200.09;5052211;28;20033;-80
2022/07/18 02:42:59;;;;;;;9.57;6.33;;;;;;;13.17;85.91;102192.28;5072307;28;20059;-79
2022/07/18 02:45:24;;;;;;;7.70;5.97;;;;;;;13.21;86.08;102200.91;5071462;28;20063;-78
2022/07/18 02:47:49;;;;;;;9.13;6.23;;;;;;;13.26;85.50;102197.59;5072569;28;20020;-78
2022/07/18 02:50:15;;;;;;;11.13;6.30;;;;;;;13.28;85.45;102198.25;5072022;28;20445;-77
2022/07/18 02:52:41;;;;;;;9.13;6.43;;;;;;;13.20;85.44;102185.63;5073541;28;20029;-77
2022/07/18 02:55:07;;;;;;;11.70;6.40;;;;;;;13.17;85.32;102196.91;5053648;28;20034;-78
2022/07/18 02:57:33;;;;;;;8.43;6.33;;;;;;;13.16;85.16;102209.69;5072556;28;20089;-78
2022/07/18 02:59:58;;;;;;;10.97;6.60;;;;;;;13.17;85.09;102208.63;5054328;28;20524;-77
2022/07/18 03:02:24;;;;;;;11.03;5.90;;;;;;;13.12;84.95;102200.22;5069556;28;20085;-78
2022/07/18 03:04:49;;;;;;;11.50;6.80;;;;;;;13.07;85.40;102190.94;5072335;28;20094;-78
2022/07/18 03:07:15;;;;;;;10.07;6.00;;;;;;;13.06;85.46;102195.56;5073316;28;20159;-77
2022/07/18 03:09:40;;;;;;;9.07;5.50;;;;;;;13.03;85.43;102184.22;5075837;28;20380;-78
2022/07/18 03:12:06;;;;;;;9.57;5.90;;;;;;;12.99;85.26;102179.16;5076919;28;20028;-77
2022/07/18 03:14:32;;;;;;;10.87;6.13;;;;;;;13.13;84.62;102180.13;5041639;28;20399;-77
2022/07/18 03:16:57;;;;;;;11.93;6.20;;;;;;;13.23;82.14;102177.09;5075880;28;20035;-77
2022/07/18 03:19:23;;;;;;;12.17;6.40;;;;;;;13.28;82.02;102177.31;5076299;28;20112;-77
2022/07/18 03:21:48;;;;;;;9.03;5.90;;;;;;;13.29;82.93;102172.72;5075238;28;20110;-78
2022/07/18 03:24:14;;;;;;;10.00;6.17;;;;;;;13.23;83.82;102168.91;5075861;28;20074;-78
2022/07/18 03:26:40;;;;;;;9.57;6.23;;;;;;;13.23;83.86;102171.63;5076939;28;20404;-78
2022/07/18 03:29:05;;;;;;;9.10;6.43;;;;;;;13.24;84.07;102169.75;5075589;28;20029;-77
2022/07/18 03:31:31;;;;;;;12.00;6.70;;;;;;;13.27;83.36;102178.38;5075838;28;20028;-78
2022/07/18 03:33:56;;;;;;;8.43;6.40;;;;;;;13.20;84.07;102163.00;5056746;28;20488;-77
2022/07/18 03:36:22;;;;;;;10.00;6.33;;;;;;;13.17;83.98;102169.69;5076473;28;20024;-78
2022/07/18 03:38:47;;;;;;;10.13;6.47;;;;;;;13.15;84.48;102163.59;5076592;28;20063;-78
2022/07/18 03:41:12;;;;;;;11.57;6.80;;;;;;;13.22;83.83;102171.81;5059482;28;20016;-77
2022/07/18 03:43:39;;;;;;;8.87;6.50;;;;;;;13.10;84.37;102168.81;5074805;28;20020;-77
2022/07/18 03:46:05;;;;;;;8.13;6.30;;;;;;;13.14;84.71;102165.47;5074143;28;20086;-77
2022/07/18 03:48:30;;;;;;;11.30;6.50;;;;;;;13.11;84.66;102168.59;5077037;28;20016;-78
2022/07/18 03:50:56;;;;;;;9.73;6.77;;;;;;;13.13;84.17;102162.97;5074063;28;20024;-77
2022/07/18 03:53:21;;;;;;;7.87;6.00;;;;;;;13.06;84.24;102170.22;5075403;28;20043;-78
2022/07/18 03:55:46;;;;;;;9.87;6.07;;;;;;;13.12;84.49;102159.41;5071985;28;20039;-77
2022/07/18 03:58:12;;;;;;;12.37;6.50;;;;;;;13.08;84.54;102165.41;5074976;28;20460;-77
2022/07/18 04:03:59;;;;;;;12.73;6.70;;;;;;;13.00;85.01;102161.81;5075427;28;20384;-77
2022/07/18 04:06:24;;;;;;;9.93;6.40;;;;;;;13.05;84.87;102154.94;5076376;28;20040;-78
2022/07/18 04:08:50;;;;;;;11.53;6.97;;;;;;;13.04;84.99;102161.41;5066036;28;20387;-77
2022/07/18 04:11:15;;;;;;;8.87;6.40;;;;;;;13.11;84.75;102156.84;5091989;28;20035;-77
2022/07/18 04:13:40;;;;;;;12.90;6.87;;;;;;;13.13;83.97;102158.34;5093089;28;20019;-77
2022/07/18 04:16:06;;;;;;;9.80;6.37;;;;;;;13.10;85.04;102150.59;5093899;28;20032;-77
2022/07/18 04:18:31;;;;;;;9.03;6.47;;;;;;;13.13;85.96;102146.63;5077443;28;20460;-78
2022/07/18 04:20:57;;;;;;;9.67;6.63;;;;;;;13.13;85.13;102146.63;5093602;28;20032;-77
2022/07/18 04:23:22;;;;;;;11.20;6.87;;;;;;;13.17;85.52;102139.75;5096058;28;20032;-77
2022/07/18 04:25:48;;;;;;;10.43;6.90;;;;;;;13.21;85.68;102148.38;5093408;28;20089;-77
2022/07/18 04:28:14;;;;;;;10.37;7.07;;;;;;;13.32;84.59;102154.09;5094434;28;20545;-77
2022/07/18 04:30:41;;;;;;;12.77;6.90;;;;;;;13.33;85.16;102144.06;5094558;28;20111;-77
2022/07/18 04:33:08;;;;;;;14.43;7.37;;;;;;;13.43;84.04;102146.47;5092521;28;20067;-77
2022/07/18 04:35:38;;;;;;;9.83;7.03;;;;;;;13.50;83.12;102147.34;5094469;28;20060;-77
2022/07/18 04:38:05;;;;;;;11.10;6.70;;;;;;;13.57;82.97;102136.50;5094655;28;20032;-77
2022/07/18 04:40:30;;;;;;;12.10;7.17;;;;;;;13.62;81.99;102134.84;5093916;28;20364;-77
2022/07/18 04:42:56;;;;;;;12.33;7.50;;;;;;;13.70;81.32;102135.75;5090764;28;20031;-77
2022/07/18 04:45:23;;;;;;;12.30;7.63;;;;;;;13.74;78.69;102131.56;5091069;28;20028;-77
2022/07/18 04:47:50;;;;;;;13.43;8.00;;;;;;;13.83;82.11;102138.50;5093502;28;20035;-77
2022/07/18 04:50:15;;;;;;;11.97;7.63;;;;;;;13.88;82.04;102136.03;5094589;28;20032;-77
2022/07/18 04:52:44;;;;;;;11.57;7.30;;;;;;;13.96;82.75;102135.84;5093268;28;20035;-78
2022/07/18 04:55:11;;;;;;;10.90;8.07;;;;;;;13.95;80.41;102136.91;5091379;28;20043;-77
2022/07/18 04:57:37;;;;;;;11.60;7.23;;;;;;;14.11;79.06;102134.88;5092949;28;20043;-77
2022/07/18 05:00:05;;;;;;;11.90;7.90;;;;;;;14.19;78.26;102137.41;5093495;28;20464;-77
2022/07/18 05:02:31;;;;;;;12.57;7.70;;;;;;;14.23;82.41;102127.78;5092110;28;20034;-77
2022/07/18 05:04:56;;;;;;;12.90;7.77;;;;;;;14.25;76.72;102116.69;5093437;28;20107;-77
2022/07/18 05:07:21;;;;;;;15.97;7.93;;;;;;;14.49;75.09;102139.81;5094149;28;20061;-77
2022/07/18 05:09:47;;;;;;;12.70;7.70;;;;;;;14.63;74.78;102146.16;5052382;28;1148943;-77
2022/07/18 05:12:12;;;;;;;12.07;8.03;;;;;;;14.68;77.42;102143.66;5095532;28;20387;-77
2022/07/18 05:14:38;;;;;;;12.30;8.03;;;;;;;14.78;79.00;102143.25;5093891;28;20036;-77
2022/07/18 05:17:03;;;;;;;12.83;7.73;;;;;;;14.94;74.72;102136.53;5095127;28;20031;-78
2022/07/18 05:19:28;;;;;;;13.17;7.60;;;;;;;15.04;72.55;102150.63;5093569;28;20049;-77
2022/07/18 05:21:54;;;;;;;12.83;8.00;;;;;;;15.13;72.23;102141.16;5092096;28;20444;-77
2022/07/18 05:24:19;;;;;;;13.27;7.83;;;;;;;15.31;70.56;102140.53;5093975;28;20039;-77
2022/07/18 05:26:45;;;;;;;13.33;7.77;;;;;;;15.49;69.60;102144.47;5091404;28;20409;-77
2022/07/18 05:29:12;;;;;;;13.80;7.70;;;;;;;15.63;68.94;102146.13;5094163;28;20027;-76
2022/07/18 05:31:39;;;;;;;15.90;7.60;;;;;;;15.78;67.75;102142.31;5093884;28;20032;-77
2022/07/18 05:34:04;;;;;;;13.93;7.37;;;;;;;15.91;67.24;102150.50;5093251;28;20032;-77
2022/07/18 05:36:29;;;;;;;11.67;7.20;;;;;;;16.03;66.44;102147.91;5093702;28;20028;-77
2022/07/18 05:38:55;;;;;;;14.73;6.70;;;;;;;16.19;65.76;102149.34;5094039;28;20460;-76
2022/07/18 05:41:20;;;;;;;13.40;6.77;;;;;;;16.31;65.33;102142.13;5094221;28;20028;-77
2022/07/18 05:43:45;;;;;;;11.13;6.27;;;;;;;16.42;64.37;102147.97;5092907;28;20119;-78
2022/07/18 05:46:11;;;;;;;12.13;6.83;;;;;;;16.53;63.89;102147.25;5093611;28;20067;-77
2022/07/18 05:48:36;;;;;;;12.93;6.50;;;;;;;16.64;63.54;102153.91;5092451;28;20024;-77
2022/07/18 05:51:03;;;;;;;13.87;6.27;;;;;;;16.75;63.04;102152.38;5094174;28;20402;-77
2022/07/18 05:53:28;;;;;;;11.93;6.40;;;;;;;16.86;63.34;102149.78;5091946;28;20392;-77
2022/07/18 05:55:53;;;;;;;12.00;6.30;;;;;;;16.99;62.59;102151.59;5093711;28;20111;-76
2022/07/18 05:58:19;;;;;;;10.80;6.50;;;;;;;17.15;62.84;102146.63;5094779;28;20020;-77
2022/07/18 06:00:44;;;;;;;11.43;6.10;;;;;;;17.27;61.32;102161.25;5093738;28;20039;-76
2022/07/18 06:03:11;;;;;;;13.40;6.50;;;;;;;17.34;61.20;102150.25;5095208;28;20032;-76
2022/07/18 06:05:36;;;;;;;11.93;6.57;;;;;;;17.44;61.28;102156.03;5092110;28;20459;-80
2022/07/18 06:08:02;;;;;;;11.30;6.63;;;;;;;17.50;61.10;102148.81;5077182;28;20029;-77
2022/07/18 06:10:27;;;;;;;11.93;6.67;;;;;;;17.58;62.17;102153.16;5087658;28;20510;-77
2022/07/18 06:12:53;;;;;;;11.00;6.50;;;;;;;17.71;62.13;102150.28;5073204;28;20043;-77
2022/07/18 06:15:19;;;;;;;14.13;6.53;;;;;;;17.81;61.97;102147.00;5091580;28;20043;-77
2022/07/18 06:17:44;;;;;;;11.47;7.10;;;;;;;17.94;62.15;102138.66;5091899;28;20024;-77
2022/07/18 06:20:10;;;;;;;15.80;6.77;;;;;;;18.10;59.43;102147.31;5093839;28;20032;-77
2022/07/18 06:22:36;;;;;;;12.50;7.20;;;;;;;18.22;60.58;102131.75;5093185;28;20023;-77
2022/07/18 06:25:02;;;;;;;11.83;7.10;;;;;;;18.36;60.56;102141.47;5076694;28;20034;-77
2022/07/18 06:27:28;;;;;;;17.50;7.17;;;;;;;18.51;60.29;102132.81;5092190;28;20056;-77
2022/07/18 06:29:53;;;;;;;10.33;6.70;;;;;;;18.61;59.40;102134.16;5094296;28;20055;-77
2022/07/18 06:32:19;;;;;;;10.50;6.97;;;;;;;18.69;58.42;102128.34;5091927;28;20118;-77
2022/07/18 06:34:44;;;;;;;11.97;7.23;;;;;;;18.81;57.98;102125.63;5092207;28;20468;-77
2022/07/18 06:37:10;;;;;;;16.70;7.43;;;;;;;18.99;58.56;102121.97;5092712;28;20122;-76
2022/07/18 06:39:35;;;;;;;14.17;7.57;;;;;;;19.10;58.19;102117.56;5091950;28;20372;-77
2022/07/18 06:42:00;;;;;;;12.73;7.57;;;;;;;19.21;56.92;102124.97;5093201;28;20418;-77
2022/07/18 06:44:26;;;;;;;11.67;7.40;;;;;;;19.25;56.67;102117.09;5090642;28;20057;-77
2022/07/18 06:46:52;;;;;;;11.20;7.23;;;;;;;19.27;56.86;102113.03;5089312;28;20036;-76
2022/07/18 06:49:18;;;;;;;13.63;7.83;;;;;;;19.37;57.20;102115.16;5092006;28;20067;-76
2022/07/18 06:51:43;;;;;;;15.33;7.70;;;;;;;19.51;58.00;102107.50;5082950;28;20855;-78
2022/07/18 06:54:08;;;;;;;13.95;7.53;;;;;;;19.59;57.71;102120.88;5076388;28;20036;-79
2022/07/18 06:56:34;;;;;;;11.13;7.57;;;;;;;19.62;57.11;102117.63;5075898;28;20127;-78
2022/07/18 06:58:59;;;;;;;13.35;7.63;;;;;;;19.73;58.09;102115.94;5076384;28;20046;-77
2022/07/18 07:01:24;;;;;;;14.30;7.67;;;;;;;19.89;57.93;102122.63;5057532;28;20051;-79
2022/07/18 07:03:50;;;;;;;14.13;8.27;;;;;;;20.02;56.54;102119.59;5076289;28;20048;-79
2022/07/18 07:06:16;;;;;;;13.95;8.15;;;;;;;20.27;57.65;102125.84;5075887;28;20040;-79
2022/07/18 07:08:42;;;;;;;15.63;8.02;;;;;;;20.37;56.65;102121.38;5071364;28;20067;-78
2022/07/18 07:11:08;;;;;;;14.80;8.55;;;;;;;20.55;55.94;102125.81;5055923;28;20189;-78
2022/07/18 07:13:33;;;;;;;15.05;8.38;;;;;;;20.76;56.71;102130.88;5056486;28;20041;-79
2022/07/18 07:15:58;;;;;;;13.70;8.15;;;;;;;20.87;55.32;102135.47;5055954;28;20403;-79
2022/07/18 07:18:24;;;;;;;14.60;8.30;;;;;;;21.03;55.54;102129.13;5056266;28;20119;-80
2022/07/18 07:20:49;;;;;;;14.60;8.10;;;;;;;21.18;52.80;102134.03;5055864;28;20043;-82
2022/07/18 07:23:16;;;;;;;13.23;8.50;;;;;;;21.42;54.65;102131.91;5055951;28;20040;-80
2022/07/18 07:25:42;;;;;;;15.48;7.40;;;;;;;21.63;55.83;102126.72;5056057;28;20037;-78
2022/07/18 07:28:08;;;;;;;13.40;7.18;;;;;;;21.81;54.10;102121.97;5056503;28;20036;-78
2022/07/18 07:30:34;;;;;;;10.02;7.03;;;;;;;21.92;53.21;102129.28;5056113;28;20055;-78
2022/07/18 07:33:00;;;;;;;14.93;8.05;;;;;;;22.12;52.46;102125.09;5055595;28;20044;-81
2022/07/18 07:35:26;;;;;;;17.60;7.80;;;;;;;22.12;56.33;102120.41;5056166;28;20401;-78
2022/07/18 07:37:54;;;;;;;12.45;7.00;;;;;;;22.41;52.81;102115.50;5055598;28;20615;-78
2022/07/18 07:40:21;;;;;;;13.90;6.80;;;;;;;22.70;48.13;102126.28;5055497;28;20036;-81
2022/07/18 07:42:46;;;;;;;13.23;6.32;;;;;;;22.82;47.16;102119.72;5055343;28;20093;-80
2022/07/18 07:45:13;;;;;;;13.68;7.28;;;;;;;22.90;45.63;102122.00;5056047;28;20036;-79
2022/07/18 07:47:39;;;;;;;12.10;6.55;;;;;;;23.04;46.44;102117.69;5062371;28;20424;-77
2022/07/18 07:50:07;;;;;;;12.80;6.90;;;;;;;23.16;45.49;102125.84;5062785;28;20029;-78
2022/07/18 07:52:33;;;;;;;14.30;6.38;;;;;;;23.34;45.69;102115.44;5049320;28;20038;-77
2022/07/18 07:54:58;;;;;;;14.57;6.82;;;;;;;23.36;45.27;102102.97;5052845;28;20111;-78
2022/07/18 07:57:23;;;;;;;14.73;6.22;;;;;;;23.52;44.75;102106.66;5074255;28;20032;-78
2022/07/18 07:59:49;;;;;;;11.73;6.38;;;;;;;23.55;44.92;102094.25;5074224;28;20028;-78
2022/07/18 08:02:15;;;;;;;12.95;6.75;;;;;;;23.53;44.74;102090.94;5055384;28;20341;-78
2022/07/18 08:04:41;;;;;;;12.15;6.88;;;;;;;23.67;44.00;102085.72;5072064;28;20491;-77
2022/07/18 08:07:06;;;;;;;13.98;6.47;;;;;;;23.72;43.92;102078.28;5074481;28;20415;-77
2022/07/18 08:09:31;;;;;;;12.90;6.80;;;;;;;23.81;44.29;102070.25;5064353;28;20091;-79
2022/07/18 08:11:57;;;;;;;14.32;6.47;;;;;;;24.14;44.32;102078.41;5058376;28;20044;-78
2022/07/18 08:14:22;;;;;;;15.05;6.07;;;;;;;24.14;43.30;102068.19;5059285;28;20149;-78
2022/07/18 08:16:47;;;;;;;10.02;5.32;;;;;;;24.53;44.48;102077.91;5058368;28;20051;-79
2022/07/18 08:19:13;;;;;;;10.52;4.50;;;;;;;24.86;42.84;102089.56;5058983;28;20944;-81
2022/07/18 08:21:38;;;;;;;9.10;5.30;;;;;;;24.90;43.23;102085.13;5058481;28;20040;-80
2022/07/18 08:24:04;;;;;;;9.43;4.32;;;;;;;25.25;42.53;102091.72;5057668;28;20127;-81
2022/07/18 08:26:29;;;;;;;13.25;5.45;;;;;;;25.65;42.07;102095.50;5057110;28;20052;-79
2022/07/18 08:28:55;;;;;;;8.75;4.00;;;;;;;25.83;38.49;102090.44;5058732;28;20041;-80
2022/07/18 08:31:20;;;;;;;9.65;4.00;;;;;;;25.93;40.22;102105.09;5058183;28;20489;-82
2022/07/18 08:33:45;;;;;;;12.27;4.10;;;;;;;26.44;39.23;102108.69;5058383;28;20044;-81
2022/07/18 08:36:11;;;;;;;11.00;4.03;;;;;;;26.75;37.31;102088.97;5058602;28;20602;-83
2022/07/18 08:38:37;;;;;;;6.68;3.75;;;;;;;26.91;37.72;102098.88;5058719;28;20490;-80
2022/07/18 08:41:03;;;;;;;8.60;3.53;;;;;;;27.28;36.50;102097.38;5058206;28;20045;-80
2022/07/18 08:43:29;;;;;;;8.85;3.65;;;;;;;27.56;39.09;102103.19;5057389;28;20868;-81
2022/07/18 08:45:56;;;;;;;13.25;3.70;;;;;;;27.83;37.03;102106.47;5058092;28;20408;-84
2022/07/18 08:48:22;;;;;;;8.95;3.17;;;;;;;28.19;34.28;102097.63;5058839;28;20147;-81
2022/07/18 08:50:50;;;;;;;7.28;3.05;;;;;;;28.31;32.80;102089.63;5058359;28;20054;-80
2022/07/18 08:53:17;;;;;;;5.30;2.50;;;;;;;28.30;33.42;102087.97;5058234;28;20044;-80
2022/07/18 08:55:46;;;;;;;8.73;3.00;;;;;;;28.57;34.08;102097.59;5058113;28;20044;-83
2022/07/18 08:58:12;;;;;;;9.15;3.10;;;;;;;28.96;32.87;102097.19;5057285;28;20040;-82
2022/07/18 09:00:38;;;;;;;8.02;2.63;;;;;;;28.63;31.64;102097.22;5058246;28;20036;-82
2022/07/18 09:03:03;;;;;;;7.22;3.05;;;;;;;28.89;33.38;102099.56;5062963;28;20071;-79
2022/07/18 09:05:30;;;;;;;9.18;2.85;;;;;;;29.06;34.28;102087.84;5065640;28;20056;-80
2022/07/18 09:08:19;;;;;;;5.65;2.50;;;;;;;29.48;33.94;102087.84;5039004;28;21352;-85
2022/07/18 09:10:56;;;;;;;7.75;2.80;;;;;;;29.46;32.71;102084.56;5057324;28;20725;-80
2022/07/18 09:13:29;;;;;;;7.82;2.85;;;;;;;29.60;31.04;102078.97;5056905;28;20464;-81
2022/07/18 09:15:58;;;;;;;8.68;2.85;;;;;;;29.56;33.16;102083.50;5057747;28;20052;-82
2022/07/18 09:18:30;;;;;;;5.45;2.60;;;;;;;30.25;30.54;102079.75;5057930;28;20098;-83
2022/07/18 09:21:07;;;;;;;6.38;2.67;;;;;;;30.23;33.04;102084.81;5069192;28;20464;-79
2022/07/18 09:23:34;;;;;;;7.15;2.72;;;;;;;30.53;31.92;102088.03;5072743;28;20032;-80
2022/07/18 09:25:59;;;;;;;6.50;2.58;;;;;;;30.77;31.34;102094.13;5071940;28;20029;-79
2022/07/18 09:28:29;;;;;;;5.63;2.72;;;;;;;31.05;30.41;102088.38;5073955;28;20032;-79
2022/07/18 09:30:56;;;;;;;6.25;2.38;;;;;;;30.89;31.71;102087.13;5073399;28;20484;-80
2022/07/18 09:33:22;;;;;;;8.43;2.65;;;;;;;31.40;30.76;102082.91;5072483;28;20028;-80
2022/07/18 09:35:52;;;;;;;7.78;2.70;;;;;;;31.72;29.56;102096.88;5057371;28;20070;-80
2022/07/18 09:38:20;;;;;;;5.38;2.42;;;;;;;32.08;26.94;102099.38;5074560;28;20024;-79
2022/07/18 09:40:51;;;;;;;4.63;2.20;;;;;;;31.45;27.66;102093.94;5073599;28;20085;-80
2022/07/18 09:43:19;;;;;;;4.95;2.17;;;;;;;31.30;30.09;102077.59;5074255;28;20036;-79
2022/07/18 09:45:47;;;;;;;5.00;2.20;;;;;;;31.61;28.11;102090.75;5073507;28;20028;-79
2022/07/18 09:48:21;;;;;;;2.72;2.00;;;;;;;31.34;28.87;102084.22;5073441;28;20154;-79
2022/07/18 09:50:55;;;;;;;4.20;2.10;;;;;;;31.55;28.50;102089.19;5073707;28;20073;-79
2022/07/18 09:53:29;;;;;;;6.90;2.40;;;;;;;32.22;26.66;102087.19;5071548;28;20060;-79
2022/07/18 09:55:58;;;;;;;4.90;2.00;;;;;;;32.21;25.95;102079.94;5073315;28;20028;-79
2022/07/18 09:58:33;;;;;;;5.65;2.05;;;;;;;32.32;27.43;102087.66;5073234;28;20456;-80
2022/07/18 10:04:57;;;;;;;4.18;2.03;;;;;;;32.93;27.45;102094.34;5074192;28;20039;-80
2022/07/18 10:07:23;;;;;;;5.13;2.00;;;;;;;32.96;25.17;102091.69;5073965;28;20032;-81
2022/07/18 10:09:49;;;;;;;5.90;2.30;;;;;;;32.34;23.55;102078.09;5072874;28;20370;-80
2022/07/18 10:12:15;;;;;;;4.93;2.00;;;;;;;32.15;24.86;102085.72;5067025;28;20036;-80
2022/07/18 10:14:41;;;;;;;4.70;2.00;;;;;;;32.30;26.27;102083.53;5072662;28;20024;-79
2022/07/18 10:17:06;;;;;;;6.32;2.10;;;;;;;32.48;25.15;102075.94;5071251;28;20036;-81
2022/07/18 10:19:34;;;;;;;3.25;1.90;;;;;;;32.37;26.52;102081.09;5070469;28;20105;-81
2022/07/18 10:22:00;;;;;;;5.20;2.30;;;;;;;32.54;27.29;102079.41;5072849;28;20411;-80
2022/07/18 10:24:27;;;;;;;4.68;2.00;;;;;;;32.38;26.14;102073.47;5073636;28;20036;-80
2022/07/18 10:27:12;;;;;;;5.22;2.30;;;;;;;32.79;28.31;102075.75;5054650;28;20024;-80
2022/07/18 10:29:38;;;;;;;5.40;2.30;;;;;;;32.49;25.36;102078.41;5073904;28;20457;-81
2022/07/18 10:32:05;;;;;;;6.95;2.10;;;;;;;32.19;25.29;102080.28;5073767;28;20031;-82
2022/07/18 10:34:36;;;;;;;5.38;2.20;;;;;;;32.29;27.10;102079.13;5073522;28;20052;-81
2022/07/18 10:37:02;;;;;;;6.53;2.20;;;;;;;32.24;26.77;102070.88;5072996;28;20064;-80
2022/07/18 10:39:35;;;;;;;4.65;1.90;;;;;;;32.63;25.88;102077.41;5067532;28;20519;-81
2022/07/18 10:42:03;;;;;;;4.38;2.10;;;;;;;32.82;25.71;102072.25;5056024;28;20036;-81
2022/07/18 10:44:31;;;;;;;3.97;2.10;;;;;;;32.61;24.76;102068.50;5055361;28;20046;-81
2022/07/18 10:47:08;;;;;;;5.28;2.00;;;;;;;32.73;28.06;102065.03;5070805;28;20040;-80
2022/07/18 10:49:46;;;;;;;5.65;2.00;;;;;;;32.67;26.63;102072.78;5071393;28;20063;-80
2022/07/18 10:52:29;;;;;;;5.78;2.30;;;;;;;32.76;27.63;102067.16;5066867;28;20074;-80
2022/07/18 10:55:15;;;;;;;5.93;2.30;;;;;;;32.23;27.65;102064.44;5061688;28;20151;-80
2022/07/18 10:58:02;;;;;;;6.03;2.13;;;;;;;32.00;27.00;102063.75;5053806;28;20051;-83
2022/07/18 11:00:33;;;;;;;6.22;2.17;;;;;;;32.44;26.05;102058.97;5055036;28;20036;-82
2022/07/18 11:03:07;;;;;;;6.13;2.40;;;;;;;32.34;27.28;102067.72;5055769;28;20025;-84
2022/07/18 11:05:44;;;;;;;6.78;2.53;;;;;;;32.27;27.62;102053.38;5060994;28;20035;-85
2022/07/18 11:08:13;;;;;;;3.65;2.20;;;;;;;32.37;30.01;102053.03;5068179;28;20059;-80
2022/07/18 11:10:41;;;;;;;5.57;2.25;;;;;;;32.69;25.69;102061.22;5071468;28;20455;-80
2022/07/18 11:13:58;;;;;;;5.18;2.33;;;;;;;32.93;26.38;102058.69;5071921;28;20063;-80
2022/07/18 11:16:21;;;;;;;5.30;2.17;;;;;;;32.71;27.33;102047.69;5063934;28;20040;-81
2022/07/18 11:18:47;;;;;;;7.78;2.20;;;;;;;32.76;25.35;102047.50;5072586;28;20078;-79
2022/07/18 11:21:25;;;;;;;4.63;2.63;;;;;;;33.05;27.02;102043.09;5068215;28;20028;-80
2022/07/18 11:23:53;;;;;;;4.43;2.13;;;;;;;32.74;25.47;102045.03;5072325;28;20071;-80
2022/07/18 11:26:21;;;;;;;4.95;2.33;;;;;;;33.01;25.02;102040.16;5052242;28;20376;-79
2022/07/18 11:28:50;;;;;;;5.80;2.35;;;;;;;33.06;29.10;102037.19;5053987;28;20040;-80
2022/07/18 11:31:16;;;;;;;9.75;2.30;;;;;;;32.93;29.09;102024.19;5073441;28;20040;-80